KRNM

Ramona Airport

Ramona, California, USA
METAR KRNM 231053Z AUTO 12003KT 10SM CLR 01/M03 A3013 RMK AO2 SLP200 T00111028
Observed Flight Rules
Jan-23 @ 10:53 UTC (an hour ago) Visual Flight Rules
Wind Visibility Clouds
120° at 3 knots 10 miles
  • Clear skies
Temperatures Readings
Current 1°C / 34°F
Dewpoint -3°C / 27°F
Humidity 75%
Altimeter 30.13" Hg
Pressure 1020 hPa
Elevation 427
METAR KRNM 231053Z AUTO 12003KT 10SM CLR 01/M03 A3013 RMK AO2 SLP200 T00111028
Observed Flight Rules
Jan-23 @ 10:53 UTC
(an hour ago)
VFR
Wind Visibility
120° at 3 knots 10 miles
Clouds
  • Clear skies
Temperature Dewpoint
1°C / 34°F -3°C / 27°F
Humidity Altimeter Pressure
75% 30.13" Hg 1020 hPa